Terminal Aerodrome Forecast
Issued by NWS

Home | Current Version | Previous Version | Text Only | Print | Product List | Glossary On
Versions: 1 2 3 4 5 6 7 8 9 10 11 12 13 14 15 16 17 18 19 20 21 22 23 24
000
FTUS43 KIND 261200 AAA
TAFHUF
TAF AMD
KHUF 261234Z 2613/2712 10006KT P6SM BKN010
     FM261500 09002KT P6SM BKN025 OVC100
     FM270000 04004KT P6SM -SHSN SCT025 OVC080
     FM270900 32005KT P6SM OVC100=

USA.gov is the U.S. government's official web portal to all federal, state and local government web resources and services.